Terminal Aerodrome Forecast
Issued by NWS

Home | Current Version | Previous Version | Text Only | Print | Product List | Glossary On
Versions: 1 2 3 4 5 6 7 8 9 10 11 12 13 14 15 16 17 18 19 20 21 22 23 24 25 26 27 28
000
FTAK31 PANC 222333
TAFACD
TAF
PACD 222333Z 2300/2324 28020KT P6SM SCT030 BKN050
     FM230500 22015KT P6SM SCT030 BKN050
     FM231000 16020G30KT P6SM -RASN SCT020 BKN035
     FM231900 16020G30KT P6SM -RA BKN015 OVC025=

USA.gov is the U.S. government's official web portal to all federal, state and local government web resources and services.